Time;durP1;ratioP1;P1;durP2;ratioP2;P2;SDS_P1;SDS_P2;PMS_P1;PMS_P2;Temp;Humidity;BMP_temperature;BMP_pressure;BME280_temperature;BME280_humidity;BME280_pressure;Samples;Min_cycle;Max_cycle;Signal;HPM_P1;HPM_P2
2022/05/09 00:00:27;;;;;;;8.52;6.97;;;;;;;19.08;51.67;100684.72;4965909;28;20636;-81
2022/05/09 00:02:54;;;;;;;8.80;6.40;;;;;;;19.11;51.42;100681.72;4953870;28;20131;-81
2022/05/09 00:05:23;;;;;;;12.02;7.65;;;;;;;19.06;51.51;100692.16;4952103;28;20055;-81
2022/05/09 00:07:50;;;;;;;14.10;7.15;;;;;;;18.87;51.87;100683.41;4961938;28;20116;-81
2022/05/09 00:10:21;;;;;;;10.55;7.63;;;;;;;18.74;52.20;100691.09;4964520;28;20042;-81
2022/05/09 00:12:48;;;;;;;10.57;7.28;;;;;;;18.57;52.75;100697.47;4951241;28;20034;-81
2022/05/09 00:15:17;;;;;;;11.77;7.22;;;;;;;18.37;52.81;100694.28;4965876;28;20705;-81
2022/05/09 00:17:47;;;;;;;10.15;7.18;;;;;;;18.33;52.97;100701.00;4950849;28;20101;-81
2022/05/09 00:20:16;;;;;;;10.80;7.55;;;;;;;18.42;52.80;100700.84;4947875;28;20094;-81
2022/05/09 00:22:55;;;;;;;9.13;7.40;;;;;;;18.43;53.29;100702.50;4964664;28;20046;-81
2022/05/09 00:25:25;;;;;;;10.00;7.47;;;;;;;18.46;53.00;100697.81;5011424;28;20709;-81
2022/05/09 00:27:53;;;;;;;11.18;7.68;;;;;;;18.64;52.46;100701.19;4983551;28;20505;-81
2022/05/09 00:30:21;;;;;;;11.43;7.43;;;;;;;18.77;52.25;100690.78;4988090;28;20049;-80
2022/05/09 00:32:48;;;;;;;11.13;7.70;;;;;;;18.87;52.10;100693.31;4990581;28;20461;-81
2022/05/09 00:35:15;;;;;;;8.07;7.20;;;;;;;18.98;51.72;100700.22;4982685;28;20057;-81
2022/05/09 00:37:43;;;;;;;10.82;7.22;;;;;;;18.99;51.71;100694.66;4989920;28;20508;-81
2022/05/09 00:40:12;;;;;;;8.57;6.28;;;;;;;19.02;51.65;100698.88;4971024;28;20047;-81
2022/05/09 00:42:53;;;;;;;11.27;7.47;;;;;;;19.06;51.76;100702.91;4966803;28;20403;-81
2022/05/09 00:45:22;;;;;;;8.93;7.60;;;;;;;19.03;51.39;100698.72;4931420;28;20101;-81
2022/05/09 00:47:49;;;;;;;11.65;8.50;;;;;;;18.88;51.68;100695.03;4966811;28;20045;-81
2022/05/09 00:50:22;;;;;;;11.77;8.55;;;;;;;18.99;51.87;100694.66;4945587;28;20154;-81
2022/05/09 00:52:52;;;;;;;;;;;;;;;18.81;52.30;100702.09;4963251;28;20050;-81
2022/05/09 00:55:47;;;;;;;10.68;8.20;;;;;;;18.85;51.97;100698.03;4985446;28;19928;-81
2022/05/09 00:58:18;;;;;;;10.48;7.68;;;;;;;18.89;51.84;100701.25;4955756;28;20038;-81
2022/05/09 01:00:45;;;;;;;11.88;8.38;;;;;;;18.60;52.38;100702.56;4924602;28;20054;-81
2022/05/09 01:03:18;;;;;;;13.27;8.45;;;;;;;18.56;52.44;100702.03;4947760;28;20410;-81
2022/05/09 01:05:50;;;;;;;9.52;7.28;;;;;;;18.64;52.31;100696.66;4933871;28;20506;-81
2022/05/09 01:08:20;;;;;;;9.50;8.40;;;;;;;18.59;52.61;100696.31;4946665;28;20121;-81
2022/05/09 01:10:47;;;;;;;16.17;9.32;;;;;;;18.75;52.30;100703.59;4933144;28;20070;-81
2022/05/09 01:13:15;;;;;;;8.98;7.82;;;;;;;18.76;52.24;100697.19;4917408;28;20042;-81
2022/05/09 01:15:47;;;;;;;10.95;8.23;;;;;;;18.40;52.89;100700.16;4949193;28;20058;-81
2022/05/09 01:18:16;;;;;;;10.55;8.57;;;;;;;18.47;52.77;100703.03;4941860;28;20076;-81
2022/05/09 01:20:44;;;;;;;10.48;8.25;;;;;;;18.58;52.67;100700.03;4929604;28;20147;-82
2022/05/09 01:23:11;;;;;;;13.88;8.40;;;;;;;18.58;52.73;100696.50;4913999;28;20043;-81
2022/05/09 01:25:39;;;;;;;12.63;9.35;;;;;;;18.44;52.93;100704.22;4911941;28;20055;-81
2022/05/09 01:28:06;;;;;;;14.90;8.77;;;;;;;18.19;53.24;100706.00;4937474;28;20039;-81
2022/05/09 01:30:42;;;;;;;10.98;8.05;;;;;;;18.18;53.49;100700.78;4896827;28;20130;-82
2022/05/09 01:33:30;;;;;;;11.40;9.32;;;;;;;18.06;54.20;100697.53;4968323;28;20066;-82
2022/05/09 01:36:02;;;;;;;12.50;8.93;;;;;;;17.85;54.80;100697.16;4961888;28;20060;-81
2022/05/09 01:38:35;;;;;;;10.30;8.90;;;;;;;17.74;55.22;100698.25;4949042;28;20085;-81
2022/05/09 01:41:02;;;;;;;12.48;8.80;;;;;;;17.66;54.72;100684.78;4949499;28;20050;-82
2022/05/09 01:43:30;;;;;;;11.98;8.65;;;;;;;17.56;54.99;100692.97;4985486;28;20042;-81
2022/05/09 01:45:56;;;;;;;10.13;8.35;;;;;;;17.57;55.00;100691.94;4950504;28;20080;-81
2022/05/09 01:51:15;;;;;;;11.77;8.82;;;;;;;17.26;56.23;100689.78;4960213;28;20506;-81
2022/05/09 01:53:49;;;;;;;13.50;8.88;;;;;;;17.29;55.84;100691.28;4983884;28;20418;-81
2022/05/09 01:56:17;;;;;;;12.75;9.35;;;;;;;17.35;55.81;100702.25;4965742;28;20545;-81
2022/05/09 01:58:44;;;;;;;15.20;9.10;;;;;;;17.45;55.30;100694.06;4968371;28;20506;-81
2022/05/09 02:01:10;;;;;;;12.77;9.20;;;;;;;17.67;55.04;100702.59;4978135;28;20484;-80
2022/05/09 02:03:37;;;;;;;11.77;8.93;;;;;;;17.88;54.58;100699.50;4946615;28;20046;-80
2022/05/09 02:06:07;;;;;;;10.95;8.43;;;;;;;17.92;54.55;100699.03;4932785;28;20051;-80
2022/05/09 02:08:36;;;;;;;11.73;9.27;;;;;;;17.90;54.63;100700.19;4953164;28;20047;-80
2022/05/09 02:11:03;;;;;;;14.88;9.52;;;;;;;17.95;54.30;100701.38;4933653;28;20524;-80
2022/05/09 02:13:30;;;;;;;16.48;9.70;;;;;;;18.08;54.22;100698.22;4937540;28;20039;-80
2022/05/09 02:15:57;;;;;;;14.32;9.50;;;;;;;18.14;53.93;100704.78;4938005;28;20435;-82
2022/05/09 02:18:24;;;;;;;12.23;8.25;;;;;;;18.22;53.63;100702.16;4952067;28;20062;-82
2022/05/09 02:20:52;;;;;;;14.10;9.07;;;;;;;18.22;53.68;100702.16;4967836;28;20054;-82
2022/05/09 02:23:19;;;;;;;12.30;9.18;;;;;;;18.09;53.99;100705.31;4954070;28;20055;-82
2022/05/09 02:25:46;;;;;;;11.30;9.50;;;;;;;18.16;53.79;100703.63;4955427;28;20065;-82
2022/05/09 02:28:14;;;;;;;12.80;7.60;;;;;;;18.17;53.67;100704.50;4953372;28;20057;-82
2022/05/09 02:30:41;;;;;;;12.57;8.98;;;;;;;18.26;53.61;100700.78;4954066;28;20398;-82
2022/05/09 02:33:09;;;;;;;18.60;9.52;;;;;;;18.05;54.02;100706.63;4966069;28;20170;-81
2022/05/09 02:35:38;;;;;;;10.85;8.65;;;;;;;17.83;54.57;100709.91;4987165;28;20108;-81
2022/05/09 02:38:07;;;;;;;12.73;9.27;;;;;;;17.72;54.71;100708.31;4984024;28;20092;-81
2022/05/09 02:40:34;;;;;;;15.13;8.80;;;;;;;17.72;55.17;100703.78;4939008;28;20047;-81
2022/05/09 02:43:02;;;;;;;14.52;9.32;;;;;;;17.69;54.81;100706.78;4989812;28;20054;-82
2022/05/09 02:45:30;;;;;;;15.07;9.93;;;;;;;17.74;54.75;100700.94;4986631;28;20046;-81
2022/05/09 02:47:57;;;;;;;10.27;8.40;;;;;;;17.55;55.08;100702.88;4983509;28;20050;-81
2022/05/09 02:50:24;;;;;;;13.45;9.45;;;;;;;17.63;55.07;100703.88;4970138;28;20512;-80
2022/05/09 02:52:52;;;;;;;15.18;9.50;;;;;;;17.56;55.22;100699.16;4989699;28;20052;-81
2022/05/09 02:55:20;;;;;;;16.23;9.27;;;;;;;17.41;55.57;100699.94;4984534;28;20167;-81
2022/05/09 02:57:47;;;;;;;12.93;9.77;;;;;;;17.45;55.59;100706.66;4969115;28;20750;-82
2022/05/09 03:00:21;;;;;;;13.45;9.85;;;;;;;17.17;56.46;100701.44;4970097;28;20553;-82
2022/05/09 03:05:36;;;;;;;14.60;9.73;;;;;;;17.35;55.84;100706.75;4944783;28;20520;-81
2022/05/09 03:08:03;;;;;;;19.15;9.95;;;;;;;17.31;55.98;100705.41;4979061;28;20098;-81
2022/05/09 03:10:31;;;;;;;15.18;10.40;;;;;;;17.33;56.11;100706.94;4973585;28;20046;-80
2022/05/09 03:13:03;;;;;;;13.68;9.90;;;;;;;17.32;56.32;100705.22;4971012;28;20508;-80
2022/05/09 03:15:31;;;;;;;12.45;9.77;;;;;;;17.44;55.46;100707.66;4986494;28;20042;-80
2022/05/09 03:18:03;;;;;;;12.00;9.52;;;;;;;17.41;56.07;100710.66;4988259;28;20047;-82
2022/05/09 03:20:30;;;;;;;13.48;9.43;;;;;;;17.51;55.51;100709.56;4986585;28;20042;-80
2022/05/09 03:22:57;;;;;;;12.88;9.02;;;;;;;17.65;55.14;100710.78;4962896;28;20780;-80
2022/05/09 03:25:24;;;;;;;15.85;10.02;;;;;;;17.47;55.53;100710.84;4988188;28;20073;-80
2022/05/09 03:27:51;;;;;;;14.13;9.63;;;;;;;17.43;55.68;100709.50;4982375;28;20137;-80
2022/05/09 03:30:18;;;;;;;11.88;9.27;;;;;;;17.56;55.19;100704.53;4963662;28;20042;-80
2022/05/09 03:32:47;;;;;;;13.90;9.73;;;;;;;17.66;55.17;100706.28;4981309;28;20046;-78
2022/05/09 03:35:14;;;;;;;18.83;10.00;;;;;;;17.73;55.04;100708.16;4985844;28;20064;-77
2022/05/09 03:37:41;;;;;;;17.48;10.45;;;;;;;17.78;54.95;100710.34;4965294;28;20458;-77
2022/05/09 03:40:09;;;;;;;16.33;9.85;;;;;;;17.60;54.95;100709.59;4953186;28;20050;-77
2022/05/09 03:42:35;;;;;;;13.35;9.95;;;;;;;17.44;55.39;100710.34;4987837;28;20050;-78
2022/05/09 03:45:03;;;;;;;14.88;9.93;;;;;;;17.36;55.51;100705.78;4989681;28;20065;-79
2022/05/09 03:47:30;;;;;;;16.52;9.52;;;;;;;17.35;55.79;100704.94;4987084;28;20050;-79
2022/05/09 03:49:57;;;;;;;14.43;9.40;;;;;;;17.43;55.73;100711.31;4985257;28;20046;-79
2022/05/09 03:52:24;;;;;;;17.30;10.02;;;;;;;17.51;55.33;100709.56;4987190;28;20497;-80
2022/05/09 03:54:51;;;;;;;14.75;10.15;;;;;;;17.45;55.44;100712.84;4988687;28;20148;-79
2022/05/09 03:57:18;;;;;;;13.10;9.70;;;;;;;17.30;55.68;100709.06;4965061;28;20047;-80
2022/05/09 03:59:45;;;;;;;15.38;10.73;;;;;;;17.17;56.04;100701.44;4968242;28;20049;-80
2022/05/09 04:02:12;;;;;;;17.52;10.70;;;;;;;17.28;55.71;100709.25;4955903;28;20042;-80
2022/05/09 04:04:39;;;;;;;13.80;9.45;;;;;;;17.44;55.44;100708.50;4987128;28;20042;-80
2022/05/09 04:07:06;;;;;;;15.85;9.43;;;;;;;17.48;55.53;100715.25;4963946;28;20050;-80
2022/05/09 04:09:32;;;;;;;15.98;9.48;;;;;;;17.52;55.38;100713.06;4970208;28;20488;-80
2022/05/09 04:11:59;;;;;;;15.32;9.50;;;;;;;17.52;55.22;100711.22;4985065;28;20042;-80
2022/05/09 04:17:14;;;;;;;17.13;10.23;;;;;;;17.62;54.98;100721.03;4990950;28;20054;-79
2022/05/09 04:19:41;;;;;;;13.32;8.93;;;;;;;17.51;55.29;100719.47;4972415;28;20453;-77
2022/05/09 04:22:08;;;;;;;14.52;10.13;;;;;;;17.57;55.26;100725.00;4985744;28;20065;-77
2022/05/09 04:24:34;;;;;;;16.10;9.73;;;;;;;17.58;55.37;100725.88;4984540;28;20042;-78
2022/05/09 04:27:02;;;;;;;17.58;10.30;;;;;;;17.68;55.55;100717.69;5007611;28;20050;-77
2022/05/09 04:29:30;;;;;;;15.38;9.25;;;;;;;17.77;55.48;100722.94;4985261;28;20065;-77
2022/05/09 04:31:58;;;;;;;16.20;10.50;;;;;;;17.79;55.09;100722.78;4987627;28;20042;-77
2022/05/09 04:34:25;;;;;;;14.63;10.32;;;;;;;17.86;54.97;100726.56;4987070;28;20054;-77
2022/05/09 04:36:51;;;;;;;16.52;9.88;;;;;;;17.61;54.93;100728.25;4985648;28;20047;-77
2022/05/09 04:39:20;;;;;;;16.58;9.73;;;;;;;17.55;55.02;100727.03;4984257;28;20053;-77
2022/05/09 04:41:47;;;;;;;16.88;9.88;;;;;;;17.22;55.81;100731.34;4983897;28;20391;-77
2022/05/09 04:44:20;;;;;;;16.33;9.70;;;;;;;17.31;55.39;100724.19;4989240;28;20074;-77
2022/05/09 04:46:47;;;;;;;16.02;9.75;;;;;;;17.20;55.78;100738.72;4983955;28;20053;-80
2022/05/09 04:49:13;;;;;;;16.65;9.95;;;;;;;17.09;55.98;100737.09;4987778;28;20050;-80
2022/05/09 04:51:40;;;;;;;14.45;9.65;;;;;;;17.29;55.64;100735.06;4984555;28;20050;-80
2022/05/09 04:54:07;;;;;;;15.63;9.38;;;;;;;17.36;55.58;100735.31;4981605;28;20132;-79
2022/05/09 04:56:33;;;;;;;18.77;8.90;;;;;;;17.24;55.82;100737.38;4983019;28;20046;-80
2022/05/09 04:59:03;;;;;;;16.88;9.68;;;;;;;17.17;55.86;100746.22;4968322;28;20062;-80
2022/05/09 05:01:30;;;;;;;14.43;9.43;;;;;;;17.30;55.55;100746.66;4962658;28;20391;-80
2022/05/09 05:03:58;;;;;;;13.68;9.10;;;;;;;17.29;55.50;100747.66;4984246;28;20054;-80
2022/05/09 05:06:24;;;;;;;17.02;9.20;;;;;;;17.41;55.44;100746.41;4965015;28;20054;-80
2022/05/09 05:08:51;;;;;;;19.48;9.75;;;;;;;17.49;55.56;100748.31;4984546;28;20047;-80
2022/05/09 05:11:18;;;;;;;15.18;9.77;;;;;;;17.62;55.02;100758.63;4964965;28;20046;-80
2022/05/09 05:13:45;;;;;;;16.85;8.43;;;;;;;17.59;54.89;100754.41;4983008;28;20050;-80
2022/05/09 05:16:11;;;;;;;10.48;8.73;;;;;;;17.63;54.90;100752.22;4965808;28;20046;-79
2022/05/09 05:18:38;;;;;;;18.52;10.07;;;;;;;17.66;54.92;100751.94;4967394;28;20061;-79
2022/05/09 05:21:13;;;;;;;15.02;8.70;;;;;;;17.70;54.60;100761.34;4981245;28;20069;-79
2022/05/09 05:23:39;;;;;;;17.40;8.98;;;;;;;17.75;54.75;100753.66;4966811;28;20129;-79
2022/05/09 05:26:07;;;;;;;12.30;8.55;;;;;;;17.84;54.41;100759.97;4980134;28;20054;-80
2022/05/09 05:28:35;;;;;;;18.20;9.48;;;;;;;17.74;54.31;100760.88;4980023;28;20038;-81
2022/05/09 05:31:15;;;;;;;13.38;8.93;;;;;;;17.65;54.05;100760.97;4969790;28;20057;-79
2022/05/09 05:33:44;;;;;;;16.13;8.82;;;;;;;17.79;54.40;100750.53;4976734;28;20165;-80
2022/05/09 05:36:11;;;;;;;13.75;8.20;;;;;;;17.56;54.53;100763.63;4961568;28;20046;-80
2022/05/09 05:38:40;;;;;;;15.82;8.82;;;;;;;17.63;54.42;100763.84;4987618;28;20494;-81
2022/05/09 05:41:07;;;;;;;15.38;8.18;;;;;;;17.64;54.27;100759.31;4984308;28;20050;-78
2022/05/09 05:43:33;;;;;;;13.85;8.35;;;;;;;17.67;54.42;100761.66;4966674;28;20039;-80
2022/05/09 05:46:00;;;;;;;18.52;8.15;;;;;;;17.79;53.96;100768.47;4976240;28;20517;-81
2022/05/09 05:48:27;;;;;;;20.45;7.85;;;;;;;17.81;53.92;100771.88;4982299;28;20066;-80
2022/05/09 05:50:54;;;;;;;15.93;8.10;;;;;;;17.83;54.26;100766.31;4983820;28;20071;-80
2022/05/09 05:53:22;;;;;;;12.00;7.15;;;;;;;17.88;53.80;100770.19;4982305;28;20050;-77
2022/05/09 05:55:49;;;;;;;10.80;7.40;;;;;;;17.75;54.08;100773.28;4979599;28;20050;-77
2022/05/09 05:58:16;;;;;;;15.10;8.13;;;;;;;17.84;54.23;100778.75;4986367;28;20045;-77
2022/05/09 06:00:43;;;;;;;16.13;7.63;;;;;;;17.81;54.20;100779.06;4957687;28;20046;-80
2022/05/09 06:03:09;;;;;;;9.68;7.40;;;;;;;17.84;53.96;100771.53;4981351;28;20077;-80
2022/05/09 06:05:36;;;;;;;15.05;7.65;;;;;;;17.90;53.95;100778.09;4970025;28;20057;-80
2022/05/09 06:08:03;;;;;;;11.57;7.90;;;;;;;17.87;53.97;100773.91;4982439;28;20053;-81
2022/05/09 06:10:44;;;;;;;18.75;8.30;;;;;;;17.93;53.96;100778.63;4979556;27;20705;-80
2022/05/09 06:13:14;;;;;;;12.80;6.97;;;;;;;17.99;53.61;100788.75;4961566;28;20057;-80
2022/05/09 06:15:42;;;;;;;14.10;8.13;;;;;;;18.06;53.84;100780.88;4967149;28;20121;-80
2022/05/09 06:18:12;;;;;;;10.23;7.65;;;;;;;18.09;53.75;100783.25;4965748;28;20049;-80
2022/05/09 06:20:41;;;;;;;13.75;7.07;;;;;;;18.04;53.41;100787.41;4946069;28;20073;-82
2022/05/09 06:23:09;;;;;;;10.85;7.25;;;;;;;17.83;54.21;100779.75;4972566;28;20675;-83
2022/05/09 06:25:36;;;;;;;12.60;6.85;;;;;;;18.04;53.95;100785.59;4979389;28;20046;-83
2022/05/09 06:28:05;;;;;;;12.32;7.13;;;;;;;18.08;53.92;100773.50;4992490;28;20066;-82
2022/05/09 06:30:32;;;;;;;11.05;7.05;;;;;;;18.15;54.28;100789.81;4981373;28;20491;-82
2022/05/09 06:32:58;;;;;;;14.40;7.28;;;;;;;18.09;53.55;100777.88;4990171;28;20038;-82
2022/05/09 06:35:27;;;;;;;14.15;6.68;;;;;;;17.96;54.07;100783.69;5004802;28;20389;-82
2022/05/09 06:38:03;;;;;;;9.38;6.47;;;;;;;17.76;54.75;100776.84;4983892;28;20042;-82
2022/05/09 06:40:31;;;;;;;13.55;6.10;;;;;;;17.95;54.75;100789.22;4986252;28;20047;-80
2022/05/09 06:42:59;;;;;;;11.38;6.90;;;;;;;17.89;54.51;100782.66;4977838;28;20038;-80
2022/05/09 06:45:28;;;;;;;11.93;6.53;;;;;;;17.88;54.36;100785.47;4958808;28;20454;-81
2022/05/09 06:47:56;;;;;;;10.07;6.40;;;;;;;17.99;54.43;100787.91;4986861;28;20142;-77
2022/05/09 06:50:27;;;;;;;14.00;6.95;;;;;;;18.05;54.45;100783.72;4954960;28;20080;-79
2022/05/09 06:52:57;;;;;;;10.52;6.18;;;;;;;18.12;54.26;100780.22;4990948;28;20045;-85
2022/05/09 06:55:42;;;;;;;17.90;6.82;;;;;;;18.18;54.39;100782.25;4988064;28;20054;-84
2022/05/09 06:58:10;;;;;;;10.50;6.72;;;;;;;18.28;53.91;100784.00;4991494;28;20631;-84
2022/05/09 07:00:38;;;;;;;13.05;6.75;;;;;;;18.32;53.96;100786.19;4994877;28;20645;-78
2022/05/09 07:03:05;;;;;;;12.52;6.82;;;;;;;18.36;54.48;100776.78;4985389;28;21425;-78
2022/05/09 07:05:37;;;;;;;14.30;6.40;;;;;;;18.18;55.06;100776.88;5010729;28;20050;-77
2022/05/09 07:08:05;;;;;;;21.20;7.60;;;;;;;18.26;54.52;100781.44;4992782;28;20039;-77
2022/05/09 07:10:31;;;;;;;14.52;6.65;;;;;;;18.28;55.22;100779.44;4991323;28;20061;-78
2022/05/09 07:12:59;;;;;;;12.35;7.30;;;;;;;18.33;55.37;100785.19;5000418;28;20053;-78
2022/05/09 07:15:28;;;;;;;10.65;6.30;;;;;;;18.36;55.16;100787.53;4985486;28;20045;-78
2022/05/09 07:17:55;;;;;;;14.15;6.68;;;;;;;18.34;55.05;100775.25;4986700;28;20050;-78
2022/05/09 07:20:25;;;;;;;10.77;6.95;;;;;;;18.40;54.92;100783.53;4988776;28;20486;-82
2022/05/09 07:22:55;;;;;;;11.88;7.15;;;;;;;18.34;54.92;100776.13;4968292;28;20042;-80
2022/05/09 07:25:23;;;;;;;14.45;7.20;;;;;;;18.28;55.19;100782.13;4981948;28;20046;-78
2022/05/09 07:27:51;;;;;;;10.80;6.25;;;;;;;18.23;55.86;100779.09;4977952;28;20056;-81
2022/05/09 07:30:19;;;;;;;11.43;6.65;;;;;;;18.41;55.90;100781.66;4962579;28;20054;-81
2022/05/09 07:32:46;;;;;;;13.05;6.70;;;;;;;18.52;55.69;100780.53;4977316;28;20046;-81
2022/05/09 07:35:15;;;;;;;11.05;6.70;;;;;;;18.48;56.29;100780.03;4977424;28;20073;-81
2022/05/09 07:37:43;;;;;;;11.40;7.03;;;;;;;18.58;55.29;100778.03;4975004;28;20485;-81
2022/05/09 07:40:11;;;;;;;11.00;6.78;;;;;;;18.68;55.69;100783.25;4986439;28;20054;-80
2022/05/09 07:42:40;;;;;;;9.75;6.45;;;;;;;18.69;54.71;100778.72;4974232;28;20050;-81
2022/05/09 07:45:08;;;;;;;14.25;7.45;;;;;;;18.72;55.66;100781.91;4974206;28;20502;-82
2022/05/09 07:47:34;;;;;;;12.85;6.75;;;;;;;18.76;55.83;100785.16;4979879;28;20038;-81
2022/05/09 07:50:02;;;;;;;11.95;6.45;;;;;;;18.81;55.17;100774.75;4967087;28;20464;-81
2022/05/09 07:52:29;;;;;;;9.27;7.18;;;;;;;18.80;55.63;100776.59;4984135;28;20042;-81
2022/05/09 07:54:56;;;;;;;13.70;7.53;;;;;;;18.78;55.03;100780.47;4966166;28;20050;-81
2022/05/09 07:57:22;;;;;;;10.23;6.13;;;;;;;18.81;55.57;100778.25;4964019;28;20073;-77
2022/05/09 07:59:49;;;;;;;9.75;6.03;;;;;;;18.76;55.21;100783.31;4973743;28;20050;-79
2022/05/09 08:02:16;;;;;;;11.23;6.78;;;;;;;18.80;55.47;100773.03;4974239;28;20254;-74
2022/05/09 08:04:44;;;;;;;12.60;6.93;;;;;;;18.91;55.01;100783.50;4983711;28;20050;-76
2022/05/09 08:07:13;;;;;;;10.15;7.18;;;;;;;18.96;54.89;100781.16;4999813;28;20050;-76
2022/05/09 08:09:40;;;;;;;12.25;7.30;;;;;;;18.93;54.68;100776.09;4982580;28;20046;-81
2022/05/09 08:12:08;;;;;;;13.52;7.13;;;;;;;18.83;55.49;100778.94;4982977;28;20046;-85
2022/05/09 08:14:35;;;;;;;10.75;6.95;;;;;;;18.93;55.34;100775.22;4978931;28;20184;-81
2022/05/09 08:17:03;;;;;;;12.00;6.97;;;;;;;18.98;54.54;100770.19;4977026;28;20046;-75
2022/05/09 08:19:31;;;;;;;12.38;7.53;;;;;;;19.08;54.69;100776.25;4980818;28;20130;-77
2022/05/09 08:21:58;;;;;;;10.48;6.88;;;;;;;19.07;55.06;100766.50;4962512;28;22092;-76
2022/05/09 08:24:28;;;;;;;10.45;6.80;;;;;;;19.10;55.07;100774.22;4984512;28;20043;-76
2022/05/09 08:26:54;;;;;;;12.45;6.85;;;;;;;19.17;55.15;100764.47;4969357;28;20042;-76
2022/05/09 08:29:21;;;;;;;9.77;6.55;;;;;;;19.19;54.70;100765.16;4979430;28;20048;-76
2022/05/09 08:31:48;;;;;;;11.82;7.47;;;;;;;19.21;54.91;100775.75;4970727;28;20076;-77
2022/05/09 08:34:15;;;;;;;9.98;6.80;;;;;;;19.13;54.76;100776.59;4977026;28;20050;-76
2022/05/09 08:36:46;;;;;;;10.52;7.07;;;;;;;19.19;56.00;100781.31;4963821;28;20065;-77
2022/05/09 08:39:13;;;;;;;14.13;6.80;;;;;;;19.19;54.95;100781.31;4974428;28;20057;-74
2022/05/09 08:42:00;;;;;;;11.77;7.22;;;;;;;19.17;54.47;100777.94;4978463;28;20054;-75
2022/05/09 08:44:38;;;;;;;11.77;6.72;;;;;;;19.14;56.18;100770.22;4970606;28;20090;-81
2022/05/09 08:47:41;;;;;;;15.95;7.25;;;;;;;19.16;55.66;100772.72;4961326;28;20042;-78
2022/05/09 08:50:26;;;;;;;13.07;6.80;;;;;;;19.35;56.33;100774.22;4943578;28;20564;-78
2022/05/09 08:53:06;;;;;;;12.15;7.13;;;;;;;19.40;55.99;100774.56;4958796;28;20450;-79
2022/05/09 08:55:41;;;;;;;8.90;7.10;;;;;;;19.43;55.21;100771.53;4974593;28;20054;-78
2022/05/09 08:58:37;;;;;;;11.95;6.45;;;;;;;19.48;55.21;100769.16;4979037;28;20050;-79
2022/05/09 09:01:16;;;;;;;14.85;6.97;;;;;;;19.47;54.37;100768.31;4921165;28;20598;-77
2022/05/09 09:03:55;;;;;;;13.10;6.45;;;;;;;19.41;54.76;100765.47;4974166;28;20050;-76
2022/05/09 09:06:57;;;;;;;8.10;6.80;;;;;;;19.44;54.24;100767.84;4933226;28;20050;-79
2022/05/09 09:09:49;;;;;;;13.05;7.40;;;;;;;19.52;54.47;100767.81;4948020;28;20070;-76
2022/05/09 09:12:40;;;;;;;15.73;7.50;;;;;;;19.63;55.06;100772.00;4946246;28;20121;-77
2022/05/09 09:15:26;;;;;;;9.88;7.10;;;;;;;19.58;54.44;100775.19;4957438;28;20842;-77
2022/05/09 09:17:58;;;;;;;12.35;6.78;;;;;;;19.63;54.76;100762.06;4977533;28;20594;-77
2022/05/09 09:20:38;;;;;;;12.07;7.30;;;;;;;19.72;54.28;100771.00;4974424;28;20046;-77
2022/05/09 09:23:20;;;;;;;13.77;8.18;;;;;;;19.62;53.50;100749.59;4990715;28;20463;-77
2022/05/09 09:26:06;;;;;;;10.85;7.80;;;;;;;19.79;53.70;100750.41;4987920;28;20051;-77
2022/05/09 09:28:44;;;;;;;18.48;7.40;;;;;;;19.72;53.60;100749.44;4952988;28;20107;-77
2022/05/09 09:31:11;;;;;;;10.50;6.93;;;;;;;19.86;53.52;100746.00;4972066;28;20069;-77
2022/05/09 09:33:44;;;;;;;13.48;7.57;;;;;;;19.90;54.00;100752.75;4977165;28;20144;-77
2022/05/09 09:36:13;;;;;;;11.73;7.20;;;;;;;20.02;52.94;100761.28;4970977;28;20089;-81
2022/05/09 09:38:53;;;;;;;13.25;7.38;;;;;;;19.93;53.22;100757.78;4978665;28;20343;-81
2022/05/09 09:41:30;;;;;;;15.48;7.57;;;;;;;19.97;53.88;100758.25;4944527;28;20065;-81
2022/05/09 09:44:07;;;;;;;11.80;7.10;;;;;;;19.99;54.17;100752.72;4934123;28;20053;-81
2022/05/09 09:47:06;;;;;;;11.68;7.10;;;;;;;19.95;52.71;100752.22;4976320;28;20057;-81
2022/05/09 09:49:41;;;;;;;10.88;7.82;;;;;;;20.01;53.93;100745.28;4945911;28;20082;-77
2022/05/09 09:52:26;;;;;;;11.27;8.25;;;;;;;20.09;53.90;100750.66;4989849;28;20043;-77
2022/05/09 09:54:58;;;;;;;19.33;8.15;;;;;;;20.06;53.67;100749.13;4980519;28;20050;-77
2022/05/09 09:57:35;;;;;;;;;;;;;;;20.06;52.65;100748.31;4972122;28;20094;-77
2022/05/09 10:00:21;;;;;;;9.30;7.13;;;;;;;20.11;51.71;100743.22;4963704;28;20400;-77
2022/05/09 10:02:48;;;;;;;10.05;7.35;;;;;;;20.27;52.44;100751.22;4981933;28;20042;-77
2022/05/09 10:05:19;;;;;;;14.73;7.22;;;;;;;20.22;52.26;100739.28;4955785;28;20443;-77
2022/05/09 10:07:47;;;;;;;17.52;7.70;;;;;;;20.25;53.60;100750.59;4969293;28;20042;-77
2022/05/09 10:10:17;;;;;;;9.85;7.25;;;;;;;20.31;52.35;100746.34;4975117;28;20055;-77
2022/05/09 10:12:48;;;;;;;10.13;7.30;;;;;;;20.27;52.29;100742.31;4984494;28;20046;-77
2022/05/09 10:15:29;;;;;;;14.05;8.18;;;;;;;20.36;52.31;100744.78;4956249;28;20046;-77
2022/05/09 10:17:57;;;;;;;11.35;7.72;;;;;;;20.46;51.40;100741.84;4998972;28;20046;-78
2022/05/09 10:20:40;;;;;;;9.02;6.93;;;;;;;20.40;51.66;100726.38;4974862;28;20122;-78
2022/05/09 10:26:22;;;;;;;12.50;6.80;;;;;;;20.47;52.04;100721.94;4946521;28;20042;-78
2022/05/09 10:28:54;;;;;;;12.80;7.47;;;;;;;20.52;51.86;100716.84;4975848;28;20042;-77
2022/05/09 10:31:24;;;;;;;12.77;7.63;;;;;;;20.58;51.13;100721.59;4973396;28;20459;-78
2022/05/09 10:34:22;;;;;;;10.40;7.57;;;;;;;20.55;50.74;100713.81;4976171;28;20049;-78
2022/05/09 10:37:38;;;;;;;11.15;7.30;;;;;;;20.56;51.03;100726.31;4941229;28;20121;-78
2022/05/09 10:40:06;;;;;;;;;;;;;;;20.57;50.07;100708.25;4941727;28;20057;-78
2022/05/09 10:42:48;;;;;;;12.63;7.07;;;;;;;20.65;51.48;100718.97;4992678;28;19926;-78
2022/05/09 10:45:24;;;;;;;9.57;7.13;;;;;;;20.60;51.99;100705.19;4948230;28;20505;-78
2022/05/09 10:47:56;;;;;;;10.00;7.28;;;;;;;20.70;50.94;100700.38;4973688;28;20432;-78
2022/05/09 10:50:40;;;;;;;17.23;8.48;;;;;;;20.73;50.56;100708.13;4982961;28;20502;-77
2022/05/09 10:53:28;;;;;;;9.43;7.32;;;;;;;20.82;51.71;100695.41;4931817;28;20058;-77
2022/05/09 10:56:06;;;;;;;13.13;7.68;;;;;;;20.88;50.37;100707.34;5002023;28;20046;-77
2022/05/09 10:58:43;;;;;;;10.02;6.78;;;;;;;20.90;49.88;100697.22;4946798;28;20051;-77
2022/05/09 11:01:16;;;;;;;9.70;7.18;;;;;;;20.88;47.91;100701.94;4988728;28;20038;-78
2022/05/09 11:03:44;;;;;;;;;;;;;;;20.80;47.86;100689.34;4964864;28;20134;-78
2022/05/09 11:06:33;;;;;;;9.38;6.95;;;;;;;20.97;48.48;100690.06;4978659;28;19922;-77
2022/05/09 11:09:09;;;;;;;10.93;7.03;;;;;;;21.03;47.54;100683.91;4977220;28;20054;-77
2022/05/09 11:11:57;;;;;;;9.32;6.78;;;;;;;21.06;47.65;100685.41;4975885;28;20046;-77
2022/05/09 11:14:35;;;;;;;10.80;6.03;;;;;;;21.02;47.54;100685.78;4966174;28;20039;-77
2022/05/09 11:17:26;;;;;;;8.23;6.97;;;;;;;21.20;48.53;100674.63;4975112;28;20046;-77
2022/05/09 11:20:19;;;;;;;10.35;6.38;;;;;;;21.09;46.31;100658.91;4972061;28;20128;-78
2022/05/09 11:22:49;;;;;;;7.30;6.28;;;;;;;21.19;48.50;100667.56;4942823;28;20062;-77
2022/05/09 11:25:42;;;;;;;8.75;6.40;;;;;;;21.13;47.76;100667.44;4980629;28;20042;-78
2022/05/09 11:28:45;;;;;;;8.35;5.97;;;;;;;21.23;45.65;100668.84;4947733;28;20100;-77
2022/05/09 11:31:33;;;;;;;9.07;7.20;;;;;;;21.22;44.53;100659.09;4938807;28;20092;-77
2022/05/09 11:34:06;;;;;;;9.95;6.93;;;;;;;21.30;45.69;100666.25;4952777;28;20490;-74
2022/05/09 11:36:42;;;;;;;;;;;;;;;21.31;47.13;100659.81;4974459;28;20054;-77
2022/05/09 11:39:14;;;;;;;7.80;6.07;;;;;;;21.38;46.07;100655.38;4973500;28;20254;-77
2022/05/09 11:41:53;;;;;;;9.35;6.82;;;;;;;21.35;45.26;100655.75;4994987;28;20499;-77
2022/05/09 11:44:24;;;;;;;9.50;6.40;;;;;;;21.38;46.01;100654.53;4994307;28;20047;-77
2022/05/09 11:47:15;;;;;;;8.07;6.18;;;;;;;21.35;44.16;100653.03;4969325;28;20398;-77
2022/05/09 11:50:04;;;;;;;8.45;6.38;;;;;;;21.43;45.80;100654.84;4991608;28;20047;-77